Time;durP1;ratioP1;P1;durP2;ratioP2;P2;SDS_P1;SDS_P2;PMS_P1;PMS_P2;Temp;Humidity;BMP_temperature;BMP_pressure;BME280_temperature;BME280_humidity;BME280_pressure;Samples;Min_cycle;Max_cycle;Signal;HPM_P1;HPM_P2
2023/06/24 00:01:29;;;;;;;7.00;5.90;;;;;;;24.28;58.67;99669.19;3169878;28;20066;-68
2023/06/24 00:03:02;;;;;;;12.48;6.55;;;;;;;24.30;58.29;99669.88;3170258;28;20063;-68
2023/06/24 00:04:34;;;;;;;10.32;5.68;;;;;;;24.26;58.51;99664.06;3170217;28;20044;-68
2023/06/24 00:06:06;;;;;;;8.30;5.95;;;;;;;24.17;58.45;99650.88;3169946;28;20058;-68
2023/06/24 00:07:43;;;;;;;8.23;5.63;;;;;;;24.23;58.42;99667.03;3170507;28;20048;-68
2023/06/24 00:09:15;;;;;;;12.85;6.07;;;;;;;24.17;58.10;99656.22;3165653;28;20313;-67
2023/06/24 00:10:48;;;;;;;8.00;5.43;;;;;;;24.22;58.17;99654.69;3169591;28;20671;-68
2023/06/24 00:12:20;;;;;;;12.50;5.80;;;;;;;24.20;57.97;99655.88;3166826;28;20048;-68
2023/06/24 00:13:51;;;;;;;9.55;5.68;;;;;;;24.19;57.92;99656.88;3170308;28;20047;-68
2023/06/24 00:15:23;;;;;;;7.97;6.07;;;;;;;24.16;58.29;99655.34;3169990;28;20538;-68
2023/06/24 00:16:56;;;;;;;12.63;6.20;;;;;;;24.14;57.90;99649.38;3167428;28;20040;-68
2023/06/24 00:18:30;;;;;;;12.38;6.28;;;;;;;24.14;57.86;99654.69;3170107;28;20054;-69
2023/06/24 00:20:01;;;;;;;11.38;6.28;;;;;;;24.10;58.09;99653.31;3145365;28;20441;-69
2023/06/24 00:21:32;;;;;;;9.98;5.70;;;;;;;24.07;57.71;99649.16;3156973;28;20051;-69
2023/06/24 00:23:03;;;;;;;6.93;5.50;;;;;;;24.07;57.55;99645.66;3166021;28;20052;-69
2023/06/24 00:24:35;;;;;;;11.15;6.05;;;;;;;24.07;57.89;99651.00;3160165;28;20052;-69
2023/06/24 00:26:06;;;;;;;12.02;5.75;;;;;;;24.06;57.66;99644.00;3162755;28;20734;-69
2023/06/24 00:27:38;;;;;;;10.32;6.40;;;;;;;24.04;58.11;99643.34;3162530;28;20048;-70
2023/06/24 00:29:10;;;;;;;7.35;5.95;;;;;;;24.00;57.62;99642.81;3172002;28;20052;-68
2023/06/24 00:30:42;;;;;;;9.02;5.75;;;;;;;23.97;58.25;99644.97;3172458;28;20120;-69
2023/06/24 00:32:14;;;;;;;10.27;5.60;;;;;;;23.95;57.81;99639.81;3162003;28;20101;-70
2023/06/24 00:33:49;;;;;;;7.25;5.95;;;;;;;23.96;57.97;99643.28;3170462;28;20390;-70
2023/06/24 00:35:21;;;;;;;10.75;6.15;;;;;;;23.92;58.30;99642.78;3158812;28;20051;-70
2023/06/24 00:36:53;;;;;;;10.88;6.32;;;;;;;23.88;58.27;99646.75;3172751;28;20448;-69
2023/06/24 00:38:25;;;;;;;10.77;6.07;;;;;;;23.83;58.28;99641.06;3172574;28;20130;-68
2023/06/24 00:39:56;;;;;;;8.73;5.75;;;;;;;23.81;58.62;99640.38;3172516;28;20040;-69
2023/06/24 00:41:28;;;;;;;10.15;6.47;;;;;;;23.77;58.63;99647.84;3165100;28;20044;-69
2023/06/24 00:43:01;;;;;;;8.32;6.53;;;;;;;23.74;58.71;99645.50;3163911;28;20135;-69
2023/06/24 00:44:33;;;;;;;10.18;6.07;;;;;;;23.69;59.11;99647.78;3172512;28;20051;-70
2023/06/24 00:46:04;;;;;;;8.90;6.15;;;;;;;23.66;58.80;99647.25;3171966;28;20051;-69
2023/06/24 00:47:35;;;;;;;9.48;6.32;;;;;;;23.61;59.46;99643.25;3172690;28;20057;-69
2023/06/24 00:49:09;;;;;;;11.75;6.25;;;;;;;23.44;59.06;99611.41;3162991;28;20056;-69
2023/06/24 00:50:45;;;;;;;9.75;6.43;;;;;;;23.53;59.67;99634.41;3161695;28;20080;-69
2023/06/24 00:52:17;;;;;;;8.48;6.40;;;;;;;23.49;59.72;99641.84;3167887;28;20047;-69
2023/06/24 00:53:49;;;;;;;10.00;6.75;;;;;;;23.46;59.56;99633.38;3172469;28;20054;-69
2023/06/24 00:55:21;;;;;;;9.27;6.90;;;;;;;23.42;60.08;99632.81;3171713;28;20051;-69
2023/06/24 00:56:54;;;;;;;12.18;7.63;;;;;;;23.42;60.17;99632.00;3168765;28;20097;-70
2023/06/24 00:58:26;;;;;;;13.07;7.10;;;;;;;23.38;60.17;99634.13;3172118;28;20047;-70
2023/06/24 01:00:00;;;;;;;11.48;6.72;;;;;;;23.36;60.55;99626.31;3172350;28;20055;-70
2023/06/24 01:01:35;;;;;;;13.38;7.00;;;;;;;23.33;60.48;99625.78;3171667;28;20135;-70
2023/06/24 01:03:07;;;;;;;9.10;6.20;;;;;;;23.29;60.46;99627.09;3172327;28;20104;-69
2023/06/24 01:04:43;;;;;;;9.82;6.97;;;;;;;23.28;60.08;99631.59;3172322;28;20047;-69
2023/06/24 01:06:16;;;;;;;10.07;6.70;;;;;;;23.17;60.07;99630.00;3172213;28;20479;-69
2023/06/24 01:07:55;;;;;;;10.15;6.35;;;;;;;23.10;60.32;99630.75;3166490;28;20110;-69
2023/06/24 01:09:28;;;;;;;7.93;6.28;;;;;;;23.08;60.46;99630.94;3163514;28;20044;-69
2023/06/24 01:11:00;;;;;;;7.90;6.28;;;;;;;23.07;60.08;99631.06;3171913;28;20054;-69
2023/06/24 01:12:31;;;;;;;7.50;6.03;;;;;;;23.07;59.64;99642.56;3172185;28;20047;-69
2023/06/24 01:14:03;;;;;;;7.75;5.93;;;;;;;23.03;59.33;99638.50;3165786;28;20047;-69
2023/06/24 01:15:34;;;;;;;9.93;5.47;;;;;;;23.02;59.49;99642.16;3171962;28;20039;-69
2023/06/24 01:17:13;;;;;;;12.77;5.88;;;;;;;23.00;58.86;99644.13;3171979;28;20452;-69
2023/06/24 01:18:49;;;;;;;15.35;6.68;;;;;;;22.96;59.17;99640.13;3172264;28;20039;-69
2023/06/24 01:20:30;;;;;;;14.20;5.22;;;;;;;22.94;59.16;99639.41;3172063;28;20517;-68
2023/06/24 01:22:12;;;;;;;12.98;5.57;;;;;;;22.90;58.64;99630.91;3172354;28;20052;-69
2023/06/24 01:24:11;;;;;;;9.00;5.40;;;;;;;22.90;58.91;99635.41;3163566;28;20105;-68
2023/06/24 01:26:06;;;;;;;13.35;5.53;;;;;;;22.80;58.64;99629.31;3162377;28;20575;-68
2023/06/24 01:28:03;;;;;;;7.18;5.45;;;;;;;22.80;58.63;99624.00;3157482;28;20105;-69
2023/06/24 01:29:57;;;;;;;10.57;6.20;;;;;;;22.77;58.70;99634.94;3159593;28;20048;-68
2023/06/24 01:31:40;;;;;;;13.07;5.88;;;;;;;22.74;58.71;99620.13;3157576;28;20131;-69
2023/06/24 01:33:20;;;;;;;8.80;5.33;;;;;;;22.71;58.34;99626.56;3172042;28;20417;-69
2023/06/24 01:34:57;;;;;;;9.27;6.07;;;;;;;22.72;58.01;99627.44;3168084;28;20366;-69
2023/06/24 01:36:33;;;;;;;8.60;5.78;;;;;;;22.71;57.88;99621.25;3171604;28;20051;-69
2023/06/24 01:38:09;;;;;;;8.50;5.72;;;;;;;22.67;58.03;99632.34;3171913;28;20043;-69
2023/06/24 01:39:47;;;;;;;9.80;6.00;;;;;;;22.58;58.31;99618.16;3171846;28;20048;-69
2023/06/24 01:41:23;;;;;;;10.45;5.95;;;;;;;22.62;58.23;99632.78;3164504;28;20587;-69
2023/06/24 01:42:57;;;;;;;9.13;5.53;;;;;;;22.59;58.38;99637.56;3163418;28;20048;-69
2023/06/24 01:44:30;;;;;;;9.70;5.50;;;;;;;22.58;57.92;99635.91;3171577;28;20448;-69
2023/06/24 01:46:04;;;;;;;10.97;5.70;;;;;;;22.42;58.19;99617.97;3171879;28;20047;-69
2023/06/24 01:47:41;;;;;;;8.50;5.47;;;;;;;22.55;58.16;99641.53;3172129;28;20305;-69
2023/06/24 01:49:15;;;;;;;10.55;6.43;;;;;;;22.51;58.12;99630.38;3156547;28;20109;-69
2023/06/24 01:50:56;;;;;;;11.57;5.22;;;;;;;22.50;58.06;99639.31;3157035;28;20063;-69
2023/06/24 01:52:30;;;;;;;6.82;5.38;;;;;;;22.38;57.95;99620.09;3146663;28;20060;-69
2023/06/24 01:54:05;;;;;;;10.07;5.20;;;;;;;22.46;58.16;99637.94;3146880;28;20051;-69
2023/06/24 01:55:39;;;;;;;10.88;5.75;;;;;;;22.44;58.23;99635.44;3149054;28;20060;-69
2023/06/24 01:57:13;;;;;;;11.75;5.18;;;;;;;22.40;58.06;99634.06;3164050;28;20105;-69
2023/06/24 01:58:46;;;;;;;8.45;5.82;;;;;;;22.38;58.38;99636.03;3171265;28;20584;-69
2023/06/24 02:00:19;;;;;;;11.25;5.65;;;;;;;22.33;58.51;99638.31;3171744;28;20056;-69
2023/06/24 02:01:52;;;;;;;9.20;5.57;;;;;;;22.34;58.51;99647.94;3171643;28;20054;-71
2023/06/24 02:03:26;;;;;;;;;;;;;;;22.16;58.49;99647.03;3172040;28;20590;-68
2023/06/24 02:05:01;;;;;;;9.20;5.00;;;;;;;22.22;58.43;99651.78;3167461;28;19927;-69
2023/06/24 02:06:34;;;;;;;15.98;6.15;;;;;;;22.25;58.38;99654.97;3166132;28;20192;-68
2023/06/24 02:08:09;;;;;;;8.13;5.65;;;;;;;22.28;58.65;99653.00;3171558;28;20108;-70
2023/06/24 02:09:43;;;;;;;13.25;6.57;;;;;;;22.30;58.32;99653.66;3162271;28;20052;-69
2023/06/24 02:11:16;;;;;;;10.05;5.78;;;;;;;22.30;58.43;99656.31;3158704;28;20044;-69
2023/06/24 02:12:50;;;;;;;10.30;5.90;;;;;;;22.29;58.33;99644.88;3166540;28;20048;-72
2023/06/24 02:14:21;;;;;;;10.27;5.05;;;;;;;22.28;58.36;99651.19;3171390;28;20105;-69
2023/06/24 02:15:55;;;;;;;9.38;5.22;;;;;;;22.29;57.98;99654.66;3171219;28;20058;-69
2023/06/24 02:17:29;;;;;;;7.28;5.00;;;;;;;22.25;58.17;99654.13;3171112;28;20047;-71
2023/06/24 02:19:04;;;;;;;11.13;6.18;;;;;;;22.27;58.06;99660.09;3171375;28;20047;-69
2023/06/24 02:20:38;;;;;;;10.45;5.25;;;;;;;22.26;58.15;99661.09;3164067;28;20506;-69
2023/06/24 02:22:09;;;;;;;10.63;6.07;;;;;;;22.23;58.18;99664.88;3150752;28;20048;-68
2023/06/24 02:23:43;;;;;;;7.78;5.20;;;;;;;22.24;58.09;99677.16;3162906;28;20202;-68
2023/06/24 02:25:15;;;;;;;7.32;5.68;;;;;;;22.20;57.89;99664.34;3163776;28;20547;-69
2023/06/24 02:26:48;;;;;;;8.13;5.05;;;;;;;22.18;57.78;99674.25;3150921;28;20110;-71
2023/06/24 02:28:21;;;;;;;8.02;5.20;;;;;;;22.14;57.79;99678.16;3171233;28;20104;-71
2023/06/24 02:29:54;;;;;;;9.93;6.57;;;;;;;22.07;57.45;99680.56;3171211;28;20550;-71
2023/06/24 02:31:25;;;;;;;8.63;5.35;;;;;;;22.06;57.40;99686.81;3171305;28;20101;-70
2023/06/24 02:32:56;;;;;;;8.80;5.18;;;;;;;22.07;57.28;99691.16;3171274;28;20184;-68
2023/06/24 02:34:30;;;;;;;8.93;5.40;;;;;;;22.03;57.32;99685.31;3152899;28;20509;-69
2023/06/24 02:36:01;;;;;;;11.90;5.55;;;;;;;22.00;57.45;99687.41;3170468;28;20059;-69
2023/06/24 02:37:33;;;;;;;8.23;5.00;;;;;;;21.98;57.45;99692.88;3170891;28;20047;-69
2023/06/24 02:39:05;;;;;;;9.73;5.53;;;;;;;21.96;57.45;99692.19;3171054;28;20047;-69
2023/06/24 02:40:37;;;;;;;7.15;5.13;;;;;;;21.93;57.30;99695.13;3168272;28;20092;-69
2023/06/24 02:42:08;;;;;;;12.32;5.60;;;;;;;21.92;57.32;99692.63;3163835;28;20732;-68
2023/06/24 02:43:40;;;;;;;11.55;5.15;;;;;;;21.91;57.15;99696.25;3166302;28;20112;-69
2023/06/24 02:45:13;;;;;;;10.60;6.32;;;;;;;21.88;57.78;99686.75;3170914;28;20047;-68
2023/06/24 02:46:46;;;;;;;10.20;5.95;;;;;;;21.79;57.54;99685.81;3171221;28;20052;-69
2023/06/24 02:48:20;;;;;;;9.77;4.97;;;;;;;21.87;57.66;99695.69;3168663;28;20591;-69
2023/06/24 02:49:56;;;;;;;10.75;5.50;;;;;;;21.88;57.45;99704.47;3160322;28;20044;-69
2023/06/24 02:51:27;;;;;;;10.25;5.30;;;;;;;21.84;57.26;99714.53;3159709;28;20083;-68
2023/06/24 02:52:59;;;;;;;7.90;6.28;;;;;;;21.84;57.67;99709.25;3170968;28;20050;-69
2023/06/24 02:54:31;;;;;;;8.23;5.87;;;;;;;21.81;57.73;99712.19;3170970;28;20047;-69
2023/06/24 02:56:04;;;;;;;8.82;5.35;;;;;;;21.81;57.54;99712.19;3167407;28;20059;-69
2023/06/24 02:57:37;;;;;;;10.60;5.68;;;;;;;21.79;57.42;99708.81;3170758;28;20559;-69
2023/06/24 02:59:09;;;;;;;9.35;5.20;;;;;;;21.77;57.55;99710.81;3170652;28;20051;-69
2023/06/24 03:00:41;;;;;;;12.20;6.50;;;;;;;21.80;57.36;99715.81;3169855;28;20058;-69
2023/06/24 03:02:12;;;;;;;6.72;5.03;;;;;;;21.79;57.45;99714.13;3158689;28;20059;-69
2023/06/24 03:03:49;;;;;;;10.30;5.38;;;;;;;21.76;57.48;99725.84;3170929;28;20413;-69
2023/06/24 03:05:25;;;;;;;9.13;5.45;;;;;;;21.75;57.98;99720.72;3170280;28;20142;-68
2023/06/24 03:06:59;;;;;;;12.32;5.45;;;;;;;21.71;57.89;99711.34;3158229;28;20083;-69
2023/06/24 03:08:31;;;;;;;8.43;5.70;;;;;;;21.70;57.59;99712.34;3155581;28;20051;-68
2023/06/24 03:10:04;;;;;;;8.80;5.20;;;;;;;21.72;57.75;99702.44;3162592;28;20113;-69
2023/06/24 03:11:42;;;;;;;14.65;5.32;;;;;;;21.75;57.39;99704.81;3157103;28;20059;-69
2023/06/24 03:13:13;;;;;;;8.70;4.97;;;;;;;21.74;57.67;99705.75;3166101;28;20135;-69
2023/06/24 03:14:45;;;;;;;11.77;5.97;;;;;;;21.74;57.34;99703.13;3170258;28;20052;-68
2023/06/24 03:16:16;;;;;;;9.85;5.32;;;;;;;21.73;57.32;99706.75;3170315;28;20048;-69
2023/06/24 03:17:48;;;;;;;12.15;5.82;;;;;;;21.71;57.59;99706.06;3170615;28;20047;-69
2023/06/24 03:19:20;;;;;;;8.25;5.05;;;;;;;21.68;57.40;99706.34;3167486;28;20055;-69
2023/06/24 03:20:53;;;;;;;8.68;4.85;;;;;;;21.68;57.63;99708.97;3164474;28;20054;-69
2023/06/24 03:22:25;;;;;;;9.00;5.22;;;;;;;21.66;57.52;99708.31;3170452;28;20059;-69
2023/06/24 03:23:58;;;;;;;12.18;6.35;;;;;;;21.67;57.43;99708.16;3170589;28;20560;-69
2023/06/24 03:25:30;;;;;;;;;;;;;;;21.50;58.01;99698.28;3169248;28;20044;-70
2023/06/24 03:27:02;;;;;;;9.70;5.28;;;;;;;21.56;57.90;99706.53;3157424;28;19927;-68
2023/06/24 03:28:33;;;;;;;12.70;5.88;;;;;;;21.62;57.46;99712.22;3168114;28;20050;-69
2023/06/24 03:30:05;;;;;;;8.50;5.53;;;;;;;21.65;57.64;99707.47;3170105;28;20470;-68
2023/06/24 03:31:37;;;;;;;8.98;5.22;;;;;;;21.68;57.32;99719.59;3170535;28;20062;-69
2023/06/24 03:33:09;;;;;;;13.93;5.55;;;;;;;21.64;57.24;99711.09;3170091;28;20047;-69
2023/06/24 03:34:40;;;;;;;10.57;6.25;;;;;;;21.67;57.46;99720.56;3170247;28;20425;-68
2023/06/24 03:36:13;;;;;;;7.60;4.65;;;;;;;21.67;57.20;99716.09;3170570;28;20058;-69
2023/06/24 03:37:44;;;;;;;10.90;5.63;;;;;;;21.65;57.62;99718.09;3170282;28;20440;-69
2023/06/24 03:39:16;;;;;;;9.27;5.47;;;;;;;21.65;57.36;99711.94;3170057;28;20048;-69
2023/06/24 03:40:47;;;;;;;8.82;4.78;;;;;;;21.64;57.19;99715.56;3166018;28;20043;-70
2023/06/24 03:42:19;;;;;;;9.15;5.93;;;;;;;21.61;57.64;99714.03;3163253;28;20433;-69
2023/06/24 03:43:51;;;;;;;9.75;5.90;;;;;;;21.63;57.47;99725.34;3166958;28;20055;-70
2023/06/24 03:45:23;;;;;;;9.07;5.10;;;;;;;21.66;57.28;99716.25;3170466;28;20048;-69
2023/06/24 03:46:55;;;;;;;8.88;5.63;;;;;;;21.67;57.60;99712.63;3170249;28;20544;-69
2023/06/24 03:48:27;;;;;;;12.98;5.72;;;;;;;21.69;57.40;99705.38;3166462;28;20044;-70
2023/06/24 03:49:59;;;;;;;9.52;5.30;;;;;;;21.69;57.20;99708.03;3157832;28;20044;-69
2023/06/24 03:51:32;;;;;;;9.45;5.80;;;;;;;21.72;57.14;99710.38;3159489;28;20048;-69
2023/06/24 03:53:05;;;;;;;9.88;5.15;;;;;;;21.66;57.53;99708.31;3170378;28;20051;-69
2023/06/24 03:54:38;;;;;;;11.13;5.68;;;;;;;21.65;57.34;99714.56;3170346;28;20479;-69
2023/06/24 03:56:10;;;;;;;;;;;;;;;21.48;57.86;99716.97;3167098;28;20047;-70
2023/06/24 03:57:41;;;;;;;8.48;5.30;;;;;;;21.55;57.76;99717.25;3166326;28;19920;-69
2023/06/24 03:59:13;;;;;;;9.13;4.95;;;;;;;21.57;57.39;99713.47;3170251;28;20047;-69
2023/06/24 04:00:46;;;;;;;9.32;5.15;;;;;;;21.56;57.51;99711.81;3168582;28;20051;-69
2023/06/24 04:02:17;;;;;;;8.18;5.15;;;;;;;21.57;57.33;99716.13;3164107;28;20055;-69
2023/06/24 04:03:48;;;;;;;11.63;5.10;;;;;;;21.61;57.16;99715.84;3173151;28;20111;-69
2023/06/24 04:05:21;;;;;;;7.90;5.43;;;;;;;21.61;56.96;99714.03;3172764;28;20108;-69
2023/06/24 04:06:54;;;;;;;10.65;5.95;;;;;;;21.62;57.24;99713.03;3172927;28;20101;-69
2023/06/24 04:08:29;;;;;;;9.15;6.35;;;;;;;21.62;57.18;99712.22;3170502;28;20051;-68
2023/06/24 04:10:00;;;;;;;7.80;5.35;;;;;;;21.58;56.94;99715.16;3161839;28;20052;-68
2023/06/24 04:11:32;;;;;;;8.52;5.47;;;;;;;21.59;57.09;99713.31;3158903;28;20047;-68
2023/06/24 04:13:03;;;;;;;13.40;5.40;;;;;;;21.55;57.22;99710.13;3161253;28;20465;-68
2023/06/24 04:14:35;;;;;;;13.10;5.72;;;;;;;21.55;57.31;99710.13;3172963;28;20048;-69
2023/06/24 04:16:07;;;;;;;10.73;6.15;;;;;;;21.57;57.82;99712.66;3165746;28;20142;-69
2023/06/24 04:17:38;;;;;;;8.45;5.43;;;;;;;21.58;57.44;99712.50;3164323;28;20048;-69
2023/06/24 04:19:10;;;;;;;9.48;5.40;;;;;;;21.66;57.41;99716.25;3169825;28;20135;-70
2023/06/24 04:20:42;;;;;;;9.23;5.97;;;;;;;21.69;57.31;99723.94;3172410;28;20043;-69
2023/06/24 04:22:15;;;;;;;9.93;6.00;;;;;;;21.73;57.70;99715.53;3172318;28;20489;-69
2023/06/24 04:23:47;;;;;;;11.57;6.40;;;;;;;21.74;57.96;99724.31;3172310;28;20542;-69
2023/06/24 04:25:19;;;;;;;9.75;7.15;;;;;;;21.78;57.31;99720.41;3171138;28;20043;-70
2023/06/24 04:26:51;;;;;;;11.75;6.13;;;;;;;21.85;57.20;99728.63;3171947;28;20504;-77
2023/06/24 04:28:23;;;;;;;9.98;5.80;;;;;;;21.93;57.01;99708.38;3172395;28;20047;-75
2023/06/24 04:29:55;;;;;;;15.05;6.78;;;;;;;22.00;56.95;99728.00;3172920;28;20043;-75
2023/06/24 04:31:27;;;;;;;12.10;5.63;;;;;;;22.03;56.62;99727.72;3159244;28;20052;-74
2023/06/24 04:32:59;;;;;;;9.63;6.18;;;;;;;22.06;56.52;99728.44;3165420;28;20131;-75
2023/06/24 04:34:32;;;;;;;9.20;5.55;;;;;;;22.09;56.22;99722.84;3171377;28;20051;-75
2023/06/24 04:36:04;;;;;;;14.52;8.68;;;;;;;22.13;55.82;99727.72;3172628;28;20512;-74
2023/06/24 04:37:38;;;;;;;10.52;6.32;;;;;;;22.19;55.91;99731.63;3172459;28;20044;-70
2023/06/24 04:39:09;;;;;;;10.05;5.25;;;;;;;22.24;55.60;99732.00;3172239;28;20112;-70
2023/06/24 04:40:43;;;;;;;9.82;5.88;;;;;;;22.30;55.34;99735.91;3171102;28;20530;-69
2023/06/24 04:42:15;;;;;;;9.80;5.18;;;;;;;22.34;55.42;99732.00;3168220;28;20044;-70
2023/06/24 04:44:02;;;;;;;8.05;5.47;;;;;;;22.42;55.12;99740.03;3168550;28;20083;-70
2023/06/24 04:45:35;;;;;;;10.55;5.53;;;;;;;22.46;54.80;99738.78;3170125;28;20047;-68
2023/06/24 04:47:06;;;;;;;9.55;5.38;;;;;;;22.52;54.27;99748.81;3172303;28;20440;-68
2023/06/24 04:48:37;;;;;;;8.85;5.85;;;;;;;22.57;54.04;99749.19;3167215;28;20513;-69
2023/06/24 04:50:10;;;;;;;7.50;5.13;;;;;;;22.59;54.24;99757.84;3162622;28;20571;-73
2023/06/24 04:51:43;;;;;;;10.88;6.00;;;;;;;22.61;53.81;99765.66;3163437;28;20055;-69
2023/06/24 04:53:16;;;;;;;7.97;5.45;;;;;;;22.62;53.97;99760.19;3172117;28;20541;-70
2023/06/24 04:54:48;;;;;;;8.13;5.20;;;;;;;22.62;54.08;99764.66;3172168;28;20555;-69
2023/06/24 04:56:20;;;;;;;9.65;5.18;;;;;;;22.65;53.48;99759.06;3168428;28;20047;-70
2023/06/24 04:57:52;;;;;;;11.77;5.53;;;;;;;22.71;53.69;99764.59;3171806;28;20047;-70
2023/06/24 04:59:23;;;;;;;10.13;5.32;;;;;;;22.75;53.60;99765.16;3163400;28;20036;-69
2023/06/24 05:00:55;;;;;;;9.27;4.95;;;;;;;22.80;53.61;99765.53;3169092;28;20044;-70
2023/06/24 05:02:27;;;;;;;12.15;5.53;;;;;;;22.87;53.39;99768.47;3162187;28;20048;-69
2023/06/24 05:03:59;;;;;;;18.20;5.90;;;;;;;22.90;53.47;99773.47;3172104;28;20043;-68
2023/06/24 05:05:31;;;;;;;8.02;5.47;;;;;;;22.93;53.41;99766.03;3164558;28;20678;-70
2023/06/24 05:07:02;;;;;;;9.77;5.75;;;;;;;22.99;53.39;99774.44;3172096;28;20062;-70
2023/06/24 05:08:35;;;;;;;8.40;5.70;;;;;;;22.99;53.13;99771.78;3169118;28;20440;-70
2023/06/24 05:10:07;;;;;;;10.40;6.03;;;;;;;22.97;52.83;99768.41;3172250;28;20516;-70
2023/06/24 05:11:39;;;;;;;9.25;5.97;;;;;;;22.98;53.01;99767.44;3158592;28;20048;-68
2023/06/24 05:13:11;;;;;;;13.02;5.95;;;;;;;23.00;53.25;99766.28;3155114;28;20051;-68
2023/06/24 05:14:43;;;;;;;10.70;5.50;;;;;;;23.03;53.11;99768.66;3169187;28;20183;-72
2023/06/24 05:16:16;;;;;;;8.18;5.22;;;;;;;23.04;52.71;99769.47;3172027;28;20051;-74
2023/06/24 05:17:48;;;;;;;8.43;5.53;;;;;;;23.06;53.09;99773.66;3172096;28;20056;-73
2023/06/24 05:19:20;;;;;;;11.35;5.65;;;;;;;23.12;52.54;99772.22;3171807;28;20157;-72
2023/06/24 05:20:52;;;;;;;10.38;6.35;;;;;;;23.18;52.83;99771.63;3171908;28;20044;-73
2023/06/24 05:22:24;;;;;;;13.93;5.97;;;;;;;23.25;52.91;99778.03;3171957;28;20044;-72
2023/06/24 05:23:57;;;;;;;9.43;6.72;;;;;;;23.30;52.80;99778.38;3171884;28;20051;-73
2023/06/24 05:25:29;;;;;;;;;;;;;;;23.22;52.81;99780.13;3170006;28;20039;-67
2023/06/24 05:27:05;;;;;;;12.48;6.13;;;;;;;23.33;53.07;99777.25;3159242;28;19924;-67
2023/06/24 05:28:37;;;;;;;11.60;6.30;;;;;;;23.40;52.58;99778.31;3170423;28;20525;-68
2023/06/24 05:30:10;;;;;;;10.15;5.95;;;;;;;23.42;53.13;99778.16;3171781;28;20051;-67
2023/06/24 05:31:42;;;;;;;9.18;5.78;;;;;;;23.47;52.55;99774.06;3171852;28;20078;-68
2023/06/24 05:33:14;;;;;;;13.93;6.45;;;;;;;23.53;53.02;99778.75;3171386;28;20048;-67
2023/06/24 05:34:45;;;;;;;15.77;6.15;;;;;;;23.62;52.51;99777.00;3171520;28;20055;-68
2023/06/24 05:36:18;;;;;;;10.75;5.82;;;;;;;23.65;52.41;99774.03;3160816;28;20466;-69
2023/06/24 05:37:49;;;;;;;7.60;5.25;;;;;;;23.71;52.43;99772.63;3171061;28;20051;-66
2023/06/24 05:39:23;;;;;;;11.20;5.78;;;;;;;23.76;52.44;99768.50;3171597;28;20054;-68
2023/06/24 05:40:54;;;;;;;10.38;5.72;;;;;;;23.79;52.21;99780.66;3166006;28;20055;-67
2023/06/24 05:42:27;;;;;;;8.05;5.95;;;;;;;23.87;51.90;99782.53;3164305;28;20048;-66
2023/06/24 05:44:03;;;;;;;12.52;7.90;;;;;;;23.93;51.81;99774.78;3163802;28;20492;-65
2023/06/24 05:45:38;;;;;;;45.05;29.77;;;;;;;23.99;52.32;99786.63;3171297;28;20052;-66
2023/06/24 05:47:09;;;;;;;21.27;15.20;;;;;;;24.04;52.09;99779.00;3171864;28;20043;-69
2023/06/24 05:48:42;;;;;;;18.65;7.82;;;;;;;24.11;52.40;99780.06;3159592;28;20489;-68
2023/06/24 05:50:13;;;;;;;15.25;7.15;;;;;;;24.19;52.80;99780.09;3168536;28;20047;-66
2023/06/24 05:51:45;;;;;;;11.52;7.18;;;;;;;24.30;52.76;99779.00;3170069;28;20127;-68
2023/06/24 05:53:17;;;;;;;15.82;8.98;;;;;;;24.38;52.25;99772.88;3166041;28;20055;-68
2023/06/24 05:54:50;;;;;;;28.92;19.08;;;;;;;24.48;52.25;99771.78;3165202;28;20054;-65
2023/06/24 05:56:22;;;;;;;;;;;;;;;24.40;52.66;99766.41;3169421;28;20542;-68
2023/06/24 05:57:54;;;;;;;33.55;22.45;;;;;;;24.50;52.95;99774.31;3170183;28;20038;-66
2023/06/24 05:59:26;;;;;;;33.15;23.95;;;;;;;24.59;52.97;99778.66;3170818;28;20468;-67
2023/06/24 06:01:00;;;;;;;18.70;7.50;;;;;;;24.66;52.40;99776.19;3167155;28;20557;-66
2023/06/24 06:02:32;;;;;;;13.95;7.22;;;;;;;24.70;52.58;99777.56;3170998;28;20078;-68
2023/06/24 06:04:04;;;;;;;11.45;7.45;;;;;;;24.78;52.23;99787.38;3171619;28;20063;-66
2023/06/24 06:05:36;;;;;;;11.85;6.50;;;;;;;24.86;52.09;99784.75;3171080;28;20047;-66
2023/06/24 06:07:07;;;;;;;11.50;7.47;;;;;;;24.91;52.03;99777.13;3171390;28;20051;-67
2023/06/24 06:08:39;;;;;;;12.30;7.90;;;;;;;24.95;51.43;99770.47;3163522;28;20052;-66
2023/06/24 06:10:15;;;;;;;12.32;7.68;;;;;;;25.04;51.93;99772.16;3171480;28;20052;-67
2023/06/24 06:11:47;;;;;;;13.18;7.97;;;;;;;25.09;51.63;99774.34;3167653;28;20047;-66
2023/06/24 06:13:19;;;;;;;16.35;7.85;;;;;;;25.16;51.56;99772.69;3170499;28;20050;-68
2023/06/24 06:14:51;;;;;;;14.35;7.75;;;;;;;25.27;52.18;99763.56;3161631;28;20047;-65
2023/06/24 06:16:23;;;;;;;15.98;10.63;;;;;;;25.34;52.53;99768.06;3166697;28;20539;-66
2023/06/24 06:17:55;;;;;;;20.10;11.38;;;;;;;25.39;52.98;99765.72;3170615;28;20058;-68
2023/06/24 06:19:27;;;;;;;16.63;10.65;;;;;;;25.43;53.18;99767.06;3170339;28;20043;-69
2023/06/24 06:20:58;;;;;;;21.35;11.05;;;;;;;25.47;53.44;99764.91;3170914;28;20048;-69
2023/06/24 06:22:32;;;;;;;16.20;11.45;;;;;;;25.51;53.23;99765.41;3171304;28;20055;-68
2023/06/24 06:24:04;;;;;;;18.33;12.77;;;;;;;25.48;53.97;99757.75;3169539;28;20052;-68
2023/06/24 06:25:38;;;;;;;16.73;12.10;;;;;;;25.45;53.79;99753.56;3167861;28;20101;-68
2023/06/24 06:27:11;;;;;;;15.95;11.30;;;;;;;25.39;54.33;99741.75;3167809;28;20502;-68
2023/06/24 06:28:43;;;;;;;19.73;10.88;;;;;;;25.43;54.37;99750.22;3171151;28;20138;-67
2023/06/24 06:30:15;;;;;;;14.35;10.02;;;;;;;25.51;54.45;99750.25;3170722;28;20056;-68
2023/06/24 06:31:47;;;;;;;17.88;10.32;;;;;;;25.61;54.26;99747.41;3170249;28;20056;-68
2023/06/24 06:33:19;;;;;;;14.40;9.45;;;;;;;25.76;54.11;99739.53;3157825;28;20052;-68
2023/06/24 06:34:50;;;;;;;23.95;11.27;;;;;;;25.91;53.63;99739.72;3158797;28;20421;-65
2023/06/24 06:36:22;;;;;;;27.52;11.75;;;;;;;26.02;53.34;99745.53;3170864;28;20043;-70
2023/06/24 06:37:54;;;;;;;16.73;10.68;;;;;;;26.11;53.41;99743.69;3170618;28;20054;-66
2023/06/24 06:39:26;;;;;;;24.02;12.05;;;;;;;26.21;53.06;99738.16;3155747;28;20040;-67
2023/06/24 06:40:59;;;;;;;25.52;12.27;;;;;;;26.32;52.84;99735.09;3164026;28;20048;-65
2023/06/24 06:42:31;;;;;;;;;;;;;;;26.30;52.88;99742.47;3165556;28;20122;-67
2023/06/24 06:44:02;;;;;;;16.25;11.40;;;;;;;26.39;52.87;99737.94;3166821;28;20033;-67
2023/06/24 06:45:34;;;;;;;17.38;11.43;;;;;;;26.39;52.63;99735.25;3160448;28;20088;-67
2023/06/24 06:47:07;;;;;;;17.13;11.40;;;;;;;26.38;52.69;99731.72;3161956;28;20047;-66
2023/06/24 06:48:39;;;;;;;19.98;10.48;;;;;;;26.37;52.62;99726.59;3166752;28;20055;-66
2023/06/24 06:50:10;;;;;;;16.48;10.57;;;;;;;26.39;52.28;99740.59;3165227;28;20052;-65
2023/06/24 06:51:42;;;;;;;18.83;10.95;;;;;;;26.43;52.23;99741.91;3169292;28;20156;-66
2023/06/24 06:53:14;;;;;;;16.35;10.30;;;;;;;26.50;51.90;99740.22;3170564;28;20043;-65
2023/06/24 06:54:45;;;;;;;22.50;10.70;;;;;;;26.62;51.75;99740.69;3170546;28;20463;-66
2023/06/24 06:56:29;;;;;;;16.55;10.70;;;;;;;26.72;51.43;99735.97;3165312;28;20141;-67
2023/06/24 06:58:01;;;;;;;15.02;10.00;;;;;;;26.76;51.02;99731.94;3170208;28;20059;-65
2023/06/24 06:59:32;;;;;;;12.38;9.90;;;;;;;26.89;50.68;99737.53;3169229;28;20040;-65
2023/06/24 07:01:05;;;;;;;16.48;9.30;;;;;;;26.97;50.61;99733.97;3164749;28;20051;-66
2023/06/24 07:02:36;;;;;;;20.73;10.50;;;;;;;27.06;50.83;99730.22;3168843;28;20502;-66
2023/06/24 07:04:08;;;;;;;16.45;9.85;;;;;;;27.11;50.56;99732.38;3170590;28;20484;-66
2023/06/24 07:05:40;;;;;;;16.23;9.77;;;;;;;27.19;50.13;99727.03;3170660;28;20049;-71
2023/06/24 07:07:12;;;;;;;20.65;9.70;;;;;;;27.19;49.57;99730.53;3170065;28;20039;-71
2023/06/24 07:08:44;;;;;;;14.03;9.60;;;;;;;27.15;49.65;99718.53;3169883;28;20050;-69
2023/06/24 07:10:16;;;;;;;15.93;10.35;;;;;;;27.19;49.77;99719.81;3170136;28;20478;-68
2023/06/24 07:11:50;;;;;;;16.08;9.55;;;;;;;27.22;49.61;99727.50;3169901;28;20503;-69
2023/06/24 07:13:22;;;;;;;16.83;9.65;;;;;;;27.30;49.21;99717.72;3165760;28;20131;-70
2023/06/24 07:14:54;;;;;;;13.02;8.70;;;;;;;27.36;48.76;99717.88;3170301;28;20042;-70
2023/06/24 07:16:25;;;;;;;14.57;8.40;;;;;;;27.38;48.55;99720.34;3158024;28;20051;-70